sensor_id;sensor_type;location;lat;lon;timestamp;P1;durP1;ratioP1;P2;durP2;ratioP2
35909;SDS011;22004;49.120;-0.200;2024-01-15T00:02:02;26.60;;;16.25;;
35909;SDS011;22004;49.120;-0.200;2024-01-15T00:04:28;27.92;;;17.00;;
35909;SDS011;22004;49.120;-0.200;2024-01-15T00:06:53;27.27;;;16.58;;
35909;SDS011;22004;49.120;-0.200;2024-01-15T00:09:19;27.02;;;16.65;;
35909;SDS011;22004;49.120;-0.200;2024-01-15T00:11:44;28.23;;;16.15;;
35909;SDS011;22004;49.120;-0.200;2024-01-15T00:14:10;27.60;;;16.48;;
35909;SDS011;22004;49.120;-0.200;2024-01-15T00:16:35;26.30;;;15.63;;
35909;SDS011;22004;49.120;-0.200;2024-01-15T00:19:00;27.60;;;16.23;;
35909;SDS011;22004;49.120;-0.200;2024-01-15T00:21:26;26.65;;;15.98;;
35909;SDS011;22004;49.120;-0.200;2024-01-15T00:23:52;25.25;;;15.43;;
35909;SDS011;22004;49.120;-0.200;2024-01-15T00:26:18;29.00;;;16.77;;
35909;SDS011;22004;49.120;-0.200;2024-01-15T00:28:43;27.48;;;16.65;;
35909;SDS011;22004;49.120;-0.200;2024-01-15T00:31:09;24.80;;;14.95;;
35909;SDS011;22004;49.120;-0.200;2024-01-15T00:33:34;26.27;;;15.27;;
35909;SDS011;22004;49.120;-0.200;2024-01-15T00:36:00;26.55;;;15.68;;
35909;SDS011;22004;49.120;-0.200;2024-01-15T00:38:26;26.05;;;16.02;;
35909;SDS011;22004;49.120;-0.200;2024-01-15T00:40:51;25.50;;;15.65;;
35909;SDS011;22004;49.120;-0.200;2024-01-15T00:43:16;24.77;;;15.35;;
35909;SDS011;22004;49.120;-0.200;2024-01-15T00:45:44;25.80;;;15.25;;
35909;SDS011;22004;49.120;-0.200;2024-01-15T00:48:09;26.08;;;15.57;;
35909;SDS011;22004;49.120;-0.200;2024-01-15T00:50:34;25.08;;;14.63;;
35909;SDS011;22004;49.120;-0.200;2024-01-15T00:53:00;25.10;;;15.75;;
35909;SDS011;22004;49.120;-0.200;2024-01-15T00:55:25;24.20;;;14.98;;
35909;SDS011;22004;49.120;-0.200;2024-01-15T00:57:52;25.77;;;15.05;;
35909;SDS011;22004;49.120;-0.200;2024-01-15T01:00:17;27.70;;;16.20;;
35909;SDS011;22004;49.120;-0.200;2024-01-15T01:02:42;24.08;;;14.65;;
35909;SDS011;22004;49.120;-0.200;2024-01-15T01:05:08;26.10;;;15.43;;
35909;SDS011;22004;49.120;-0.200;2024-01-15T01:07:33;24.20;;;14.57;;
35909;SDS011;22004;49.120;-0.200;2024-01-15T01:09:58;25.48;;;15.25;;
35909;SDS011;22004;49.120;-0.200;2024-01-15T01:12:24;27.55;;;15.45;;
35909;SDS011;22004;49.120;-0.200;2024-01-15T01:14:49;25.77;;;14.82;;
35909;SDS011;22004;49.120;-0.200;2024-01-15T01:17:14;23.27;;;13.90;;
35909;SDS011;22004;49.120;-0.200;2024-01-15T01:19:40;30.02;;;16.95;;
35909;SDS011;22004;49.120;-0.200;2024-01-15T01:22:05;27.85;;;15.70;;
35909;SDS011;22004;49.120;-0.200;2024-01-15T01:24:30;24.85;;;14.45;;
35909;SDS011;22004;49.120;-0.200;2024-01-15T01:26:56;22.35;;;13.43;;
35909;SDS011;22004;49.120;-0.200;2024-01-15T01:29:21;23.95;;;15.23;;
35909;SDS011;22004;49.120;-0.200;2024-01-15T01:31:47;24.67;;;14.45;;
35909;SDS011;22004;49.120;-0.200;2024-01-15T01:34:13;25.70;;;14.57;;
35909;SDS011;22004;49.120;-0.200;2024-01-15T01:36:40;26.20;;;15.18;;
35909;SDS011;22004;49.120;-0.200;2024-01-15T01:39:05;25.45;;;14.63;;
35909;SDS011;22004;49.120;-0.200;2024-01-15T01:41:30;27.98;;;14.85;;
35909;SDS011;22004;49.120;-0.200;2024-01-15T01:43:56;24.88;;;14.65;;
35909;SDS011;22004;49.120;-0.200;2024-01-15T01:46:22;22.73;;;13.55;;
35909;SDS011;22004;49.120;-0.200;2024-01-15T01:48:48;23.52;;;13.75;;
35909;SDS011;22004;49.120;-0.200;2024-01-15T01:51:13;24.30;;;14.13;;
35909;SDS011;22004;49.120;-0.200;2024-01-15T01:53:39;25.10;;;14.13;;
35909;SDS011;22004;49.120;-0.200;2024-01-15T01:56:05;23.42;;;13.48;;
35909;SDS011;22004;49.120;-0.200;2024-01-15T01:58:32;21.73;;;13.07;;
35909;SDS011;22004;49.120;-0.200;2024-01-15T02:00:58;21.33;;;12.82;;
35909;SDS011;22004;49.120;-0.200;2024-01-15T02:03:24;23.38;;;13.05;;
35909;SDS011;22004;49.120;-0.200;2024-01-15T02:05:51;22.17;;;13.00;;
35909;SDS011;22004;49.120;-0.200;2024-01-15T02:08:18;23.52;;;12.40;;
35909;SDS011;22004;49.120;-0.200;2024-01-15T02:10:43;23.95;;;12.95;;
35909;SDS011;22004;49.120;-0.200;2024-01-15T02:13:08;20.13;;;12.50;;
35909;SDS011;22004;49.120;-0.200;2024-01-15T02:15:34;21.95;;;12.68;;
35909;SDS011;22004;49.120;-0.200;2024-01-15T02:18:00;22.10;;;12.80;;
35909;SDS011;22004;49.120;-0.200;2024-01-15T02:20:27;21.73;;;12.73;;
35909;SDS011;22004;49.120;-0.200;2024-01-15T02:22:53;20.92;;;12.10;;
35909;SDS011;22004;49.120;-0.200;2024-01-15T02:25:18;21.42;;;12.63;;
35909;SDS011;22004;49.120;-0.200;2024-01-15T02:27:44;21.10;;;12.45;;
35909;SDS011;22004;49.120;-0.200;2024-01-15T02:30:11;21.55;;;11.98;;
35909;SDS011;22004;49.120;-0.200;2024-01-15T02:32:37;19.63;;;11.60;;
35909;SDS011;22004;49.120;-0.200;2024-01-15T02:35:03;21.67;;;12.40;;
35909;SDS011;22004;49.120;-0.200;2024-01-15T02:37:29;21.73;;;12.00;;
35909;SDS011;22004;49.120;-0.200;2024-01-15T02:39:54;19.35;;;11.90;;
35909;SDS011;22004;49.120;-0.200;2024-01-15T02:42:19;19.85;;;11.23;;
35909;SDS011;22004;49.120;-0.200;2024-01-15T02:44:45;18.38;;;10.63;;
35909;SDS011;22004;49.120;-0.200;2024-01-15T02:47:10;18.67;;;10.98;;
35909;SDS011;22004;49.120;-0.200;2024-01-15T02:49:35;19.05;;;11.25;;
35909;SDS011;22004;49.120;-0.200;2024-01-15T02:52:01;20.60;;;11.43;;
35909;SDS011;22004;49.120;-0.200;2024-01-15T02:54:26;20.73;;;11.43;;
35909;SDS011;22004;49.120;-0.200;2024-01-15T02:56:51;19.52;;;10.77;;
35909;SDS011;22004;49.120;-0.200;2024-01-15T02:59:17;20.13;;;11.02;;
35909;SDS011;22004;49.120;-0.200;2024-01-15T03:01:42;19.70;;;11.75;;
35909;SDS011;22004;49.120;-0.200;2024-01-15T03:04:07;23.10;;;12.35;;
35909;SDS011;22004;49.120;-0.200;2024-01-15T03:06:32;18.67;;;10.70;;
35909;SDS011;22004;49.120;-0.200;2024-01-15T03:08:58;18.02;;;10.70;;
35909;SDS011;22004;49.120;-0.200;2024-01-15T03:11:23;17.38;;;10.95;;
35909;SDS011;22004;49.120;-0.200;2024-01-15T03:13:48;19.17;;;11.05;;
35909;SDS011;22004;49.120;-0.200;2024-01-15T03:16:14;19.08;;;11.02;;
35909;SDS011;22004;49.120;-0.200;2024-01-15T03:18:39;18.85;;;10.65;;
35909;SDS011;22004;49.120;-0.200;2024-01-15T03:21:05;19.67;;;11.05;;
35909;SDS011;22004;49.120;-0.200;2024-01-15T03:23:31;21.00;;;12.35;;
35909;SDS011;22004;49.120;-0.200;2024-01-15T03:25:56;17.30;;;10.43;;
35909;SDS011;22004;49.120;-0.200;2024-01-15T03:28:21;21.65;;;11.98;;
35909;SDS011;22004;49.120;-0.200;2024-01-15T03:30:47;18.08;;;11.43;;
35909;SDS011;22004;49.120;-0.200;2024-01-15T03:33:12;17.90;;;11.32;;
35909;SDS011;22004;49.120;-0.200;2024-01-15T03:35:37;19.88;;;11.25;;
35909;SDS011;22004;49.120;-0.200;2024-01-15T03:38:02;19.60;;;10.63;;
35909;SDS011;22004;49.120;-0.200;2024-01-15T03:40:28;20.35;;;11.40;;
35909;SDS011;22004;49.120;-0.200;2024-01-15T03:42:53;20.20;;;11.55;;
35909;SDS011;22004;49.120;-0.200;2024-01-15T03:45:19;19.70;;;11.57;;
35909;SDS011;22004;49.120;-0.200;2024-01-15T03:47:44;18.92;;;10.98;;
35909;SDS011;22004;49.120;-0.200;2024-01-15T03:50:10;18.13;;;10.52;;
35909;SDS011;22004;49.120;-0.200;2024-01-15T03:52:35;19.17;;;10.93;;
35909;SDS011;22004;49.120;-0.200;2024-01-15T03:55:00;19.98;;;11.13;;
35909;SDS011;22004;49.120;-0.200;2024-01-15T03:57:26;19.10;;;11.23;;
35909;SDS011;22004;49.120;-0.200;2024-01-15T03:59:51;17.13;;;10.43;;
35909;SDS011;22004;49.120;-0.200;2024-01-15T04:02:17;19.00;;;11.45;;
35909;SDS011;22004;49.120;-0.200;2024-01-15T04:04:42;20.63;;;11.75;;
35909;SDS011;22004;49.120;-0.200;2024-01-15T04:07:11;21.10;;;10.85;;
35909;SDS011;22004;49.120;-0.200;2024-01-15T04:09:36;19.08;;;11.90;;
35909;SDS011;22004;49.120;-0.200;2024-01-15T04:12:02;18.85;;;10.77;;
35909;SDS011;22004;49.120;-0.200;2024-01-15T04:14:28;22.65;;;11.68;;
35909;SDS011;22004;49.120;-0.200;2024-01-15T04:16:53;19.70;;;11.73;;
35909;SDS011;22004;49.120;-0.200;2024-01-15T04:19:19;19.98;;;11.52;;
35909;SDS011;22004;49.120;-0.200;2024-01-15T04:21:44;19.02;;;10.95;;
35909;SDS011;22004;49.120;-0.200;2024-01-15T04:24:09;19.25;;;11.10;;
35909;SDS011;22004;49.120;-0.200;2024-01-15T04:26:35;22.45;;;11.05;;
35909;SDS011;22004;49.120;-0.200;2024-01-15T04:29:00;24.60;;;12.35;;
35909;SDS011;22004;49.120;-0.200;2024-01-15T04:31:25;23.50;;;11.55;;
35909;SDS011;22004;49.120;-0.200;2024-01-15T04:33:54;21.60;;;12.25;;
35909;SDS011;22004;49.120;-0.200;2024-01-15T04:36:19;23.23;;;13.20;;
35909;SDS011;22004;49.120;-0.200;2024-01-15T04:38:44;22.27;;;12.63;;
35909;SDS011;22004;49.120;-0.200;2024-01-15T04:41:13;21.33;;;12.48;;
35909;SDS011;22004;49.120;-0.200;2024-01-15T04:43:39;18.73;;;11.23;;
35909;SDS011;22004;49.120;-0.200;2024-01-15T04:46:05;22.98;;;12.65;;
35909;SDS011;22004;49.120;-0.200;2024-01-15T04:48:31;22.08;;;12.43;;
35909;SDS011;22004;49.120;-0.200;2024-01-15T04:50:57;20.63;;;13.00;;
35909;SDS011;22004;49.120;-0.200;2024-01-15T04:53:22;20.42;;;12.52;;
35909;SDS011;22004;49.120;-0.200;2024-01-15T04:55:47;25.23;;;13.13;;
35909;SDS011;22004;49.120;-0.200;2024-01-15T04:58:13;21.90;;;12.15;;
35909;SDS011;22004;49.120;-0.200;2024-01-15T05:00:38;22.02;;;13.35;;
35909;SDS011;22004;49.120;-0.200;2024-01-15T05:03:04;22.35;;;12.77;;
35909;SDS011;22004;49.120;-0.200;2024-01-15T05:05:29;27.65;;;14.20;;
35909;SDS011;22004;49.120;-0.200;2024-01-15T05:07:54;25.63;;;13.65;;
35909;SDS011;22004;49.120;-0.200;2024-01-15T05:10:20;23.08;;;12.82;;
35909;SDS011;22004;49.120;-0.200;2024-01-15T05:12:45;26.25;;;13.95;;
35909;SDS011;22004;49.120;-0.200;2024-01-15T05:15:10;24.20;;;13.80;;
35909;SDS011;22004;49.120;-0.200;2024-01-15T05:17:36;21.88;;;13.45;;
35909;SDS011;22004;49.120;-0.200;2024-01-15T05:20:01;23.75;;;13.77;;
35909;SDS011;22004;49.120;-0.200;2024-01-15T05:22:28;23.35;;;13.75;;
35909;SDS011;22004;49.120;-0.200;2024-01-15T05:24:53;23.05;;;13.80;;
35909;SDS011;22004;49.120;-0.200;2024-01-15T05:27:18;26.67;;;14.10;;
35909;SDS011;22004;49.120;-0.200;2024-01-15T05:29:44;21.48;;;12.85;;
35909;SDS011;22004;49.120;-0.200;2024-01-15T05:32:09;24.00;;;13.63;;
35909;SDS011;22004;49.120;-0.200;2024-01-15T05:34:35;23.55;;;13.50;;
35909;SDS011;22004;49.120;-0.200;2024-01-15T05:37:00;29.38;;;14.10;;
35909;SDS011;22004;49.120;-0.200;2024-01-15T05:39:25;21.70;;;13.25;;
35909;SDS011;22004;49.120;-0.200;2024-01-15T05:41:51;24.33;;;13.18;;
35909;SDS011;22004;49.120;-0.200;2024-01-15T05:44:16;24.27;;;13.40;;
35909;SDS011;22004;49.120;-0.200;2024-01-15T05:46:42;23.23;;;13.15;;
35909;SDS011;22004;49.120;-0.200;2024-01-15T05:49:07;22.95;;;13.02;;
35909;SDS011;22004;49.120;-0.200;2024-01-15T05:51:32;21.10;;;12.50;;
35909;SDS011;22004;49.120;-0.200;2024-01-15T05:53:57;22.05;;;12.50;;
35909;SDS011;22004;49.120;-0.200;2024-01-15T05:56:23;24.90;;;13.95;;
35909;SDS011;22004;49.120;-0.200;2024-01-15T05:58:49;21.60;;;12.32;;
35909;SDS011;22004;49.120;-0.200;2024-01-15T06:01:14;22.45;;;13.07;;
35909;SDS011;22004;49.120;-0.200;2024-01-15T06:03:40;22.00;;;12.60;;
35909;SDS011;22004;49.120;-0.200;2024-01-15T06:06:05;22.70;;;12.52;;
35909;SDS011;22004;49.120;-0.200;2024-01-15T06:08:30;23.77;;;13.18;;
35909;SDS011;22004;49.120;-0.200;2024-01-15T06:10:56;22.45;;;12.55;;
35909;SDS011;22004;49.120;-0.200;2024-01-15T06:13:21;23.70;;;12.43;;
35909;SDS011;22004;49.120;-0.200;2024-01-15T06:15:47;27.63;;;13.35;;
35909;SDS011;22004;49.120;-0.200;2024-01-15T06:18:12;21.00;;;12.20;;
35909;SDS011;22004;49.120;-0.200;2024-01-15T06:20:37;22.42;;;12.80;;
35909;SDS011;22004;49.120;-0.200;2024-01-15T06:23:03;22.08;;;13.00;;
35909;SDS011;22004;49.120;-0.200;2024-01-15T06:25:29;22.83;;;13.07;;
35909;SDS011;22004;49.120;-0.200;2024-01-15T06:27:54;24.95;;;13.02;;
35909;SDS011;22004;49.120;-0.200;2024-01-15T06:30:19;20.15;;;11.98;;
35909;SDS011;22004;49.120;-0.200;2024-01-15T06:32:45;21.20;;;12.13;;
35909;SDS011;22004;49.120;-0.200;2024-01-15T06:35:10;23.75;;;13.10;;
35909;SDS011;22004;49.120;-0.200;2024-01-15T06:37:36;22.65;;;13.23;;
35909;SDS011;22004;49.120;-0.200;2024-01-15T06:40:02;22.33;;;13.07;;
35909;SDS011;22004;49.120;-0.200;2024-01-15T06:42:28;20.05;;;11.63;;
35909;SDS011;22004;49.120;-0.200;2024-01-15T06:44:53;21.42;;;12.40;;
35909;SDS011;22004;49.120;-0.200;2024-01-15T06:47:18;22.13;;;11.98;;
35909;SDS011;22004;49.120;-0.200;2024-01-15T06:49:44;21.73;;;12.10;;
35909;SDS011;22004;49.120;-0.200;2024-01-15T06:52:09;21.60;;;12.60;;
35909;SDS011;22004;49.120;-0.200;2024-01-15T06:54:34;21.20;;;12.23;;
35909;SDS011;22004;49.120;-0.200;2024-01-15T06:57:00;23.05;;;11.98;;
35909;SDS011;22004;49.120;-0.200;2024-01-15T06:59:25;21.10;;;12.52;;
35909;SDS011;22004;49.120;-0.200;2024-01-15T07:01:50;17.98;;;11.82;;
35909;SDS011;22004;49.120;-0.200;2024-01-15T07:04:16;20.40;;;12.07;;
35909;SDS011;22004;49.120;-0.200;2024-01-15T07:06:41;20.98;;;11.40;;
35909;SDS011;22004;49.120;-0.200;2024-01-15T07:09:06;18.00;;;11.40;;
35909;SDS011;22004;49.120;-0.200;2024-01-15T07:11:33;18.10;;;11.55;;
35909;SDS011;22004;49.120;-0.200;2024-01-15T07:13:58;19.80;;;11.40;;
35909;SDS011;22004;49.120;-0.200;2024-01-15T07:16:23;23.58;;;11.63;;
35909;SDS011;22004;49.120;-0.200;2024-01-15T07:18:49;19.40;;;11.18;;
35909;SDS011;22004;49.120;-0.200;2024-01-15T07:21:14;17.20;;;10.45;;
35909;SDS011;22004;49.120;-0.200;2024-01-15T07:23:40;18.38;;;10.77;;
35909;SDS011;22004;49.120;-0.200;2024-01-15T07:26:05;19.80;;;11.32;;
35909;SDS011;22004;49.120;-0.200;2024-01-15T07:28:30;19.30;;;10.68;;
35909;SDS011;22004;49.120;-0.200;2024-01-15T07:30:56;21.63;;;10.90;;
35909;SDS011;22004;49.120;-0.200;2024-01-15T07:33:22;19.05;;;11.35;;
35909;SDS011;22004;49.120;-0.200;2024-01-15T07:35:47;17.95;;;10.88;;
35909;SDS011;22004;49.120;-0.200;2024-01-15T07:38:12;19.17;;;10.63;;
35909;SDS011;22004;49.120;-0.200;2024-01-15T18:47:40;9.23;;;5.07;;
35909;SDS011;22004;49.120;-0.200;2024-01-15T18:50:07;8.57;;;4.63;;
35909;SDS011;22004;49.120;-0.200;2024-01-15T18:52:34;10.50;;;5.30;;
35909;SDS011;22004;49.120;-0.200;2024-01-15T18:55:00;9.23;;;5.57;;
35909;SDS011;22004;49.120;-0.200;2024-01-15T18:57:27;9.45;;;5.20;;
35909;SDS011;22004;49.120;-0.200;2024-01-15T18:59:52;11.57;;;4.97;;
35909;SDS011;22004;49.120;-0.200;2024-01-15T19:02:18;8.93;;;5.30;;
35909;SDS011;22004;49.120;-0.200;2024-01-15T19:04:44;9.40;;;5.65;;
35909;SDS011;22004;49.120;-0.200;2024-01-15T19:07:10;10.80;;;5.60;;
35909;SDS011;22004;49.120;-0.200;2024-01-15T19:09:35;11.43;;;5.82;;
35909;SDS011;22004;49.120;-0.200;2024-01-15T19:12:01;10.63;;;5.78;;
35909;SDS011;22004;49.120;-0.200;2024-01-15T19:14:26;12.25;;;6.75;;
35909;SDS011;22004;49.120;-0.200;2024-01-15T19:16:52;10.98;;;6.80;;
35909;SDS011;22004;49.120;-0.200;2024-01-15T19:19:17;10.63;;;5.90;;
35909;SDS011;22004;49.120;-0.200;2024-01-15T19:21:43;9.52;;;5.70;;
35909;SDS011;22004;49.120;-0.200;2024-01-15T19:24:09;10.27;;;6.50;;
35909;SDS011;22004;49.120;-0.200;2024-01-15T19:26:34;11.32;;;6.78;;
35909;SDS011;22004;49.120;-0.200;2024-01-15T19:29:00;10.82;;;6.63;;
35909;SDS011;22004;49.120;-0.200;2024-01-15T19:31:25;9.73;;;6.57;;
35909;SDS011;22004;49.120;-0.200;2024-01-15T19:33:54;12.48;;;7.20;;
35909;SDS011;22004;49.120;-0.200;2024-01-15T19:36:20;11.80;;;7.15;;
35909;SDS011;22004;49.120;-0.200;2024-01-15T19:38:47;14.18;;;7.43;;
35909;SDS011;22004;49.120;-0.200;2024-01-15T19:41:12;13.68;;;7.43;;
35909;SDS011;22004;49.120;-0.200;2024-01-15T19:43:39;13.48;;;7.85;;
35909;SDS011;22004;49.120;-0.200;2024-01-15T19:46:04;14.65;;;7.85;;
35909;SDS011;22004;49.120;-0.200;2024-01-15T19:48:30;14.60;;;8.23;;
35909;SDS011;22004;49.120;-0.200;2024-01-15T19:50:55;12.10;;;7.63;;
35909;SDS011;22004;49.120;-0.200;2024-01-15T19:53:21;14.23;;;7.20;;
35909;SDS011;22004;49.120;-0.200;2024-01-15T19:55:47;14.20;;;7.65;;
35909;SDS011;22004;49.120;-0.200;2024-01-15T19:58:12;15.82;;;6.97;;
35909;SDS011;22004;49.120;-0.200;2024-01-15T20:00:39;12.48;;;7.88;;
35909;SDS011;22004;49.120;-0.200;2024-01-15T20:03:04;12.18;;;7.53;;
35909;SDS011;22004;49.120;-0.200;2024-01-15T20:05:29;13.90;;;7.20;;
35909;SDS011;22004;49.120;-0.200;2024-01-15T20:07:55;9.48;;;6.97;;
35909;SDS011;22004;49.120;-0.200;2024-01-15T20:10:20;12.30;;;7.25;;
35909;SDS011;22004;49.120;-0.200;2024-01-15T20:12:47;12.57;;;7.65;;
35909;SDS011;22004;49.120;-0.200;2024-01-15T20:15:13;13.15;;;7.45;;
35909;SDS011;22004;49.120;-0.200;2024-01-15T20:17:38;14.15;;;7.82;;
35909;SDS011;22004;49.120;-0.200;2024-01-15T20:20:04;14.73;;;7.85;;
35909;SDS011;22004;49.120;-0.200;2024-01-15T20:22:34;13.45;;;8.23;;
35909;SDS011;22004;49.120;-0.200;2024-01-15T20:24:59;12.25;;;7.60;;
35909;SDS011;22004;49.120;-0.200;2024-01-15T20:27:24;13.60;;;7.30;;
35909;SDS011;22004;49.120;-0.200;2024-01-15T20:29:50;16.42;;;8.52;;
35909;SDS011;22004;49.120;-0.200;2024-01-15T20:32:15;16.27;;;9.52;;
35909;SDS011;22004;49.120;-0.200;2024-01-15T20:34:43;14.40;;;7.85;;
35909;SDS011;22004;49.120;-0.200;2024-01-15T20:37:08;14.65;;;8.25;;
35909;SDS011;22004;49.120;-0.200;2024-01-15T20:39:34;17.63;;;9.20;;
35909;SDS011;22004;49.120;-0.200;2024-01-15T20:41:59;18.02;;;9.60;;
35909;SDS011;22004;49.120;-0.200;2024-01-15T20:44:25;20.38;;;10.73;;
35909;SDS011;22004;49.120;-0.200;2024-01-15T20:46:50;17.05;;;9.18;;
35909;SDS011;22004;49.120;-0.200;2024-01-15T20:49:15;17.02;;;10.30;;
35909;SDS011;22004;49.120;-0.200;2024-01-15T20:51:41;16.15;;;9.25;;
35909;SDS011;22004;49.120;-0.200;2024-01-15T20:54:06;18.35;;;10.30;;
35909;SDS011;22004;49.120;-0.200;2024-01-15T20:56:31;21.17;;;11.13;;
35909;SDS011;22004;49.120;-0.200;2024-01-15T20:58:57;18.38;;;9.80;;
35909;SDS011;22004;49.120;-0.200;2024-01-15T21:01:22;19.73;;;10.05;;
35909;SDS011;22004;49.120;-0.200;2024-01-15T21:03:47;23.80;;;11.98;;
35909;SDS011;22004;49.120;-0.200;2024-01-15T21:06:12;20.38;;;11.02;;
35909;SDS011;22004;49.120;-0.200;2024-01-15T21:08:38;23.15;;;11.32;;
35909;SDS011;22004;49.120;-0.200;2024-01-15T21:11:05;16.38;;;9.75;;
35909;SDS011;22004;49.120;-0.200;2024-01-15T21:13:31;18.35;;;10.60;;
35909;SDS011;22004;49.120;-0.200;2024-01-15T21:15:58;21.13;;;10.75;;
35909;SDS011;22004;49.120;-0.200;2024-01-15T21:18:23;20.23;;;10.90;;
35909;SDS011;22004;49.120;-0.200;2024-01-15T21:20:49;19.83;;;10.90;;
35909;SDS011;22004;49.120;-0.200;2024-01-15T21:23:14;21.25;;;11.27;;
35909;SDS011;22004;49.120;-0.200;2024-01-15T21:25:39;23.67;;;12.95;;
35909;SDS011;22004;49.120;-0.200;2024-01-15T21:28:05;30.42;;;14.10;;
35909;SDS011;22004;49.120;-0.200;2024-01-15T21:30:31;28.33;;;13.30;;
35909;SDS011;22004;49.120;-0.200;2024-01-15T21:33:00;27.85;;;14.00;;
35909;SDS011;22004;49.120;-0.200;2024-01-15T21:35:25;26.40;;;13.25;;
35909;SDS011;22004;49.120;-0.200;2024-01-15T21:37:51;31.58;;;15.77;;
35909;SDS011;22004;49.120;-0.200;2024-01-15T21:40:16;29.50;;;14.82;;
35909;SDS011;22004;49.120;-0.200;2024-01-15T21:42:41;33.47;;;15.32;;
35909;SDS011;22004;49.120;-0.200;2024-01-15T21:45:07;31.05;;;14.88;;
35909;SDS011;22004;49.120;-0.200;2024-01-15T21:47:34;31.05;;;15.77;;
35909;SDS011;22004;49.120;-0.200;2024-01-15T21:50:04;30.40;;;15.70;;
35909;SDS011;22004;49.120;-0.200;2024-01-15T21:52:30;27.77;;;14.30;;
35909;SDS011;22004;49.120;-0.200;2024-01-15T21:54:55;26.17;;;14.77;;
35909;SDS011;22004;49.120;-0.200;2024-01-15T21:57:21;29.05;;;15.15;;
35909;SDS011;22004;49.120;-0.200;2024-01-15T21:59:46;29.05;;;14.35;;
35909;SDS011;22004;49.120;-0.200;2024-01-15T22:02:11;28.83;;;15.07;;
35909;SDS011;22004;49.120;-0.200;2024-01-15T22:04:37;28.08;;;14.65;;
35909;SDS011;22004;49.120;-0.200;2024-01-15T22:07:03;29.05;;;14.20;;
35909;SDS011;22004;49.120;-0.200;2024-01-15T22:09:29;27.40;;;14.77;;
35909;SDS011;22004;49.120;-0.200;2024-01-15T22:11:54;27.52;;;14.40;;
35909;SDS011;22004;49.120;-0.200;2024-01-15T22:14:19;24.50;;;14.90;;
35909;SDS011;22004;49.120;-0.200;2024-01-15T22:16:45;25.92;;;14.10;;
35909;SDS011;22004;49.120;-0.200;2024-01-15T22:19:10;24.40;;;13.65;;
35909;SDS011;22004;49.120;-0.200;2024-01-15T22:21:42;25.17;;;13.98;;
35909;SDS011;22004;49.120;-0.200;2024-01-15T22:24:10;22.67;;;13.65;;
35909;SDS011;22004;49.120;-0.200;2024-01-15T22:26:36;23.58;;;13.20;;
35909;SDS011;22004;49.120;-0.200;2024-01-15T22:29:02;25.15;;;13.90;;
35909;SDS011;22004;49.120;-0.200;2024-01-15T22:31:27;24.63;;;13.40;;
35909;SDS011;22004;49.120;-0.200;2024-01-15T22:33:53;26.08;;;14.30;;
35909;SDS011;22004;49.120;-0.200;2024-01-15T22:36:18;23.40;;;13.15;;
35909;SDS011;22004;49.120;-0.200;2024-01-15T22:38:43;22.60;;;13.57;;
35909;SDS011;22004;49.120;-0.200;2024-01-15T22:41:09;25.48;;;14.32;;
35909;SDS011;22004;49.120;-0.200;2024-01-15T22:43:34;23.33;;;13.38;;
35909;SDS011;22004;49.120;-0.200;2024-01-15T22:46:00;24.67;;;13.50;;
35909;SDS011;22004;49.120;-0.200;2024-01-15T22:48:26;27.58;;;14.50;;
35909;SDS011;22004;49.120;-0.200;2024-01-15T22:50:51;23.77;;;13.88;;
35909;SDS011;22004;49.120;-0.200;2024-01-15T22:53:17;25.67;;;13.98;;
35909;SDS011;22004;49.120;-0.200;2024-01-15T22:55:43;26.52;;;13.45;;
35909;SDS011;22004;49.120;-0.200;2024-01-15T22:58:08;24.45;;;13.82;;
35909;SDS011;22004;49.120;-0.200;2024-01-15T23:00:33;23.73;;;13.73;;
35909;SDS011;22004;49.120;-0.200;2024-01-15T23:02:59;23.80;;;13.60;;
35909;SDS011;22004;49.120;-0.200;2024-01-15T23:05:26;23.25;;;13.02;;
35909;SDS011;22004;49.120;-0.200;2024-01-15T23:07:51;24.77;;;14.20;;
35909;SDS011;22004;49.120;-0.200;2024-01-15T23:10:17;24.73;;;13.00;;
35909;SDS011;22004;49.120;-0.200;2024-01-15T23:12:42;21.27;;;13.32;;
35909;SDS011;22004;49.120;-0.200;2024-01-15T23:15:08;20.85;;;12.68;;
35909;SDS011;22004;49.120;-0.200;2024-01-15T23:17:33;21.15;;;12.60;;
35909;SDS011;22004;49.120;-0.200;2024-01-15T23:19:59;22.42;;;13.10;;
35909;SDS011;22004;49.120;-0.200;2024-01-15T23:22:25;23.95;;;13.50;;
35909;SDS011;22004;49.120;-0.200;2024-01-15T23:24:50;22.23;;;12.80;;
35909;SDS011;22004;49.120;-0.200;2024-01-15T23:27:15;22.70;;;13.38;;
35909;SDS011;22004;49.120;-0.200;2024-01-15T23:29:41;24.70;;;13.68;;
35909;SDS011;22004;49.120;-0.200;2024-01-15T23:32:06;20.08;;;12.70;;
35909;SDS011;22004;49.120;-0.200;2024-01-15T23:34:34;25.23;;;14.00;;
35909;SDS011;22004;49.120;-0.200;2024-01-15T23:36:59;34.53;;;14.98;;
35909;SDS011;22004;49.120;-0.200;2024-01-15T23:39:25;28.20;;;14.35;;
35909;SDS011;22004;49.120;-0.200;2024-01-15T23:41:50;31.85;;;13.23;;
35909;SDS011;22004;49.120;-0.200;2024-01-15T23:44:16;34.10;;;14.18;;
35909;SDS011;22004;49.120;-0.200;2024-01-15T23:46:42;26.27;;;13.15;;
35909;SDS011;22004;49.120;-0.200;2024-01-15T23:49:07;28.63;;;14.13;;
35909;SDS011;22004;49.120;-0.200;2024-01-15T23:51:32;32.38;;;14.68;;
35909;SDS011;22004;49.120;-0.200;2024-01-15T23:53:58;29.85;;;14.05;;
35909;SDS011;22004;49.120;-0.200;2024-01-15T23:56:23;25.73;;;13.77;;
35909;SDS011;22004;49.120;-0.200;2024-01-15T23:58:49;32.47;;;14.00;;
